sensor_id;sensor_type;location;lat;lon;timestamp;temperature;humidity
16040;DHT22;8124;48.634;8.120;2023-11-19T00:01:36;12.70;99.90
16040;DHT22;8124;48.634;8.120;2023-11-19T00:06:41;12.70;99.90
16040;DHT22;8124;48.634;8.120;2023-11-19T00:11:44;12.80;99.90
16040;DHT22;8124;48.634;8.120;2023-11-19T00:16:55;12.80;99.90
16040;DHT22;8124;48.634;8.120;2023-11-19T00:21:59;12.90;99.90
16040;DHT22;8124;48.634;8.120;2023-11-19T00:27:04;12.90;99.90
16040;DHT22;8124;48.634;8.120;2023-11-19T00:32:09;13.00;99.90
16040;DHT22;8124;48.634;8.120;2023-11-19T00:37:15;12.90;99.90
16040;DHT22;8124;48.634;8.120;2023-11-19T00:42:18;13.00;99.90
16040;DHT22;8124;48.634;8.120;2023-11-19T00:47:22;13.00;99.90
16040;DHT22;8124;48.634;8.120;2023-11-19T00:52:26;13.10;99.90
16040;DHT22;8124;48.634;8.120;2023-11-19T00:57:29;13.00;99.90
16040;DHT22;8124;48.634;8.120;2023-11-19T01:02:34;13.10;99.90
16040;DHT22;8124;48.634;8.120;2023-11-19T01:07:39;13.10;99.90
16040;DHT22;8124;48.634;8.120;2023-11-19T01:12:42;13.10;99.90
16040;DHT22;8124;48.634;8.120;2023-11-19T01:17:45;13.10;99.90
16040;DHT22;8124;48.634;8.120;2023-11-19T01:22:52;13.10;99.90
16040;DHT22;8124;48.634;8.120;2023-11-19T01:27:55;13.20;99.90
16040;DHT22;8124;48.634;8.120;2023-11-19T01:33:00;13.30;99.90
16040;DHT22;8124;48.634;8.120;2023-11-19T01:38:04;13.40;99.90
16040;DHT22;8124;48.634;8.120;2023-11-19T01:43:07;13.40;99.90
16040;DHT22;8124;48.634;8.120;2023-11-19T01:48:14;13.40;99.90
16040;DHT22;8124;48.634;8.120;2023-11-19T01:53:18;13.40;99.90
16040;DHT22;8124;48.634;8.120;2023-11-19T01:58:22;13.50;99.90
16040;DHT22;8124;48.634;8.120;2023-11-19T02:03:26;13.50;99.90
16040;DHT22;8124;48.634;8.120;2023-11-19T02:08:32;13.40;99.90
16040;DHT22;8124;48.634;8.120;2023-11-19T02:13:37;13.50;99.90
16040;DHT22;8124;48.634;8.120;2023-11-19T02:18:40;13.60;99.90
16040;DHT22;8124;48.634;8.120;2023-11-19T02:23:46;13.50;99.90
16040;DHT22;8124;48.634;8.120;2023-11-19T02:28:50;13.50;99.90
16040;DHT22;8124;48.634;8.120;2023-11-19T02:33:54;13.50;99.90
16040;DHT22;8124;48.634;8.120;2023-11-19T02:38:57;13.40;99.90
16040;DHT22;8124;48.634;8.120;2023-11-19T02:44:01;13.50;99.90
16040;DHT22;8124;48.634;8.120;2023-11-19T02:49:05;13.50;99.90
16040;DHT22;8124;48.634;8.120;2023-11-19T02:54:08;13.50;99.90
16040;DHT22;8124;48.634;8.120;2023-11-19T02:59:13;13.50;99.90
16040;DHT22;8124;48.634;8.120;2023-11-19T03:04:28;13.50;99.90
16040;DHT22;8124;48.634;8.120;2023-11-19T03:09:32;13.60;99.90
16040;DHT22;8124;48.634;8.120;2023-11-19T03:14:36;13.60;99.90
16040;DHT22;8124;48.634;8.120;2023-11-19T03:19:39;13.60;99.90
16040;DHT22;8124;48.634;8.120;2023-11-19T03:24:43;13.70;99.90
16040;DHT22;8124;48.634;8.120;2023-11-19T03:29:47;13.70;99.90
16040;DHT22;8124;48.634;8.120;2023-11-19T03:34:50;13.80;99.90
16040;DHT22;8124;48.634;8.120;2023-11-19T03:39:54;13.80;99.90
16040;DHT22;8124;48.634;8.120;2023-11-19T03:45:06;13.80;99.90
16040;DHT22;8124;48.634;8.120;2023-11-19T03:50:10;13.80;99.90
16040;DHT22;8124;48.634;8.120;2023-11-19T03:55:13;13.90;99.90
16040;DHT22;8124;48.634;8.120;2023-11-19T04:00:18;13.90;99.90
16040;DHT22;8124;48.634;8.120;2023-11-19T04:05:22;13.90;99.90
16040;DHT22;8124;48.634;8.120;2023-11-19T04:10:25;14.00;99.90
16040;DHT22;8124;48.634;8.120;2023-11-19T04:15:32;13.90;99.90
16040;DHT22;8124;48.634;8.120;2023-11-19T04:20:35;14.00;99.90
16040;DHT22;8124;48.634;8.120;2023-11-19T04:25:38;14.00;99.90
16040;DHT22;8124;48.634;8.120;2023-11-19T04:30:42;14.10;99.90
16040;DHT22;8124;48.634;8.120;2023-11-19T04:35:46;14.10;99.90
16040;DHT22;8124;48.634;8.120;2023-11-19T04:40:49;14.10;99.90
16040;DHT22;8124;48.634;8.120;2023-11-19T04:45:53;14.10;99.90
16040;DHT22;8124;48.634;8.120;2023-11-19T04:50:56;14.10;99.90
16040;DHT22;8124;48.634;8.120;2023-11-19T04:55:59;14.10;99.90
16040;DHT22;8124;48.634;8.120;2023-11-19T05:01:04;14.20;99.90
16040;DHT22;8124;48.634;8.120;2023-11-19T05:06:08;14.20;99.90
16040;DHT22;8124;48.634;8.120;2023-11-19T05:11:11;14.20;99.90
16040;DHT22;8124;48.634;8.120;2023-11-19T05:16:21;14.20;99.90
16040;DHT22;8124;48.634;8.120;2023-11-19T05:21:24;14.20;99.90
16040;DHT22;8124;48.634;8.120;2023-11-19T05:26:26;14.30;99.90
16040;DHT22;8124;48.634;8.120;2023-11-19T05:31:31;14.30;99.90
16040;DHT22;8124;48.634;8.120;2023-11-19T05:36:38;14.40;99.90
16040;DHT22;8124;48.634;8.120;2023-11-19T05:41:41;14.40;99.90
16040;DHT22;8124;48.634;8.120;2023-11-19T05:46:45;14.40;99.90
16040;DHT22;8124;48.634;8.120;2023-11-19T05:51:48;14.50;99.90
16040;DHT22;8124;48.634;8.120;2023-11-19T05:56:53;14.50;99.90
16040;DHT22;8124;48.634;8.120;2023-11-19T06:01:58;14.50;99.90
16040;DHT22;8124;48.634;8.120;2023-11-19T06:07:01;14.40;99.90
16040;DHT22;8124;48.634;8.120;2023-11-19T06:12:05;14.50;99.90
16040;DHT22;8124;48.634;8.120;2023-11-19T06:17:10;14.50;99.90
16040;DHT22;8124;48.634;8.120;2023-11-19T06:22:14;14.50;99.90
16040;DHT22;8124;48.634;8.120;2023-11-19T06:27:17;14.60;99.90
16040;DHT22;8124;48.634;8.120;2023-11-19T06:32:21;14.60;99.90
16040;DHT22;8124;48.634;8.120;2023-11-19T06:37:24;14.60;99.90
16040;DHT22;8124;48.634;8.120;2023-11-19T06:42:29;14.70;99.90
16040;DHT22;8124;48.634;8.120;2023-11-19T06:47:33;14.50;99.90
16040;DHT22;8124;48.634;8.120;2023-11-19T06:52:36;14.50;99.90
16040;DHT22;8124;48.634;8.120;2023-11-19T06:57:40;14.60;99.90
16040;DHT22;8124;48.634;8.120;2023-11-19T07:02:44;14.60;99.90
16040;DHT22;8124;48.634;8.120;2023-11-19T07:07:47;14.70;99.90
16040;DHT22;8124;48.634;8.120;2023-11-19T07:12:50;14.70;99.90
16040;DHT22;8124;48.634;8.120;2023-11-19T07:17:55;14.70;99.90
16040;DHT22;8124;48.634;8.120;2023-11-19T07:23:03;14.70;99.90
16040;DHT22;8124;48.634;8.120;2023-11-19T07:28:07;14.70;99.90
16040;DHT22;8124;48.634;8.120;2023-11-19T07:33:11;14.80;99.90
16040;DHT22;8124;48.634;8.120;2023-11-19T07:38:15;14.90;99.90
16040;DHT22;8124;48.634;8.120;2023-11-19T07:43:18;14.90;99.90
16040;DHT22;8124;48.634;8.120;2023-11-19T07:48:23;14.90;99.90
16040;DHT22;8124;48.634;8.120;2023-11-19T07:53:26;15.00;99.90
16040;DHT22;8124;48.634;8.120;2023-11-19T07:58:29;15.10;99.90
16040;DHT22;8124;48.634;8.120;2023-11-19T08:03:34;15.10;99.90
16040;DHT22;8124;48.634;8.120;2023-11-19T08:08:37;15.10;99.90
16040;DHT22;8124;48.634;8.120;2023-11-19T08:13:40;15.10;99.90
16040;DHT22;8124;48.634;8.120;2023-11-19T08:18:45;15.20;99.90
16040;DHT22;8124;48.634;8.120;2023-11-19T08:23:48;15.10;99.90
16040;DHT22;8124;48.634;8.120;2023-11-19T08:28:51;15.20;99.90
16040;DHT22;8124;48.634;8.120;2023-11-19T08:33:56;15.20;99.90
16040;DHT22;8124;48.634;8.120;2023-11-19T08:38:59;15.30;99.90
16040;DHT22;8124;48.634;8.120;2023-11-19T08:44:02;15.20;99.90
16040;DHT22;8124;48.634;8.120;2023-11-19T08:49:06;15.30;99.90
16040;DHT22;8124;48.634;8.120;2023-11-19T08:54:10;15.30;99.90
16040;DHT22;8124;48.634;8.120;2023-11-19T08:59:14;15.30;99.90
16040;DHT22;8124;48.634;8.120;2023-11-19T09:04:20;15.30;99.90
16040;DHT22;8124;48.634;8.120;2023-11-19T09:09:24;15.30;99.90
16040;DHT22;8124;48.634;8.120;2023-11-19T09:14:27;15.30;99.90
16040;DHT22;8124;48.634;8.120;2023-11-19T09:19:33;15.40;99.90
16040;DHT22;8124;48.634;8.120;2023-11-19T09:24:37;15.30;99.90
16040;DHT22;8124;48.634;8.120;2023-11-19T09:29:40;15.40;99.90
16040;DHT22;8124;48.634;8.120;2023-11-19T09:34:46;15.40;99.90
16040;DHT22;8124;48.634;8.120;2023-11-19T09:39:49;15.40;99.90
16040;DHT22;8124;48.634;8.120;2023-11-19T09:44:53;15.40;99.90
16040;DHT22;8124;48.634;8.120;2023-11-19T09:49:59;15.50;99.90
16040;DHT22;8124;48.634;8.120;2023-11-19T09:55:02;15.50;99.90
16040;DHT22;8124;48.634;8.120;2023-11-19T10:00:06;15.50;99.90
16040;DHT22;8124;48.634;8.120;2023-11-19T10:05:10;15.50;99.90
16040;DHT22;8124;48.634;8.120;2023-11-19T10:10:14;15.60;99.90
16040;DHT22;8124;48.634;8.120;2023-11-19T10:15:22;15.50;99.90
16040;DHT22;8124;48.634;8.120;2023-11-19T10:20:27;15.50;99.90
16040;DHT22;8124;48.634;8.120;2023-11-19T10:25:30;15.60;99.90
16040;DHT22;8124;48.634;8.120;2023-11-19T10:30:33;15.60;99.90
16040;DHT22;8124;48.634;8.120;2023-11-19T10:35:53;15.60;99.90
16040;DHT22;8124;48.634;8.120;2023-11-19T10:40:59;15.70;99.90
16040;DHT22;8124;48.634;8.120;2023-11-19T10:46:09;15.80;99.90
16040;DHT22;8124;48.634;8.120;2023-11-19T10:51:18;15.90;99.90
16040;DHT22;8124;48.634;8.120;2023-11-19T10:56:25;15.80;99.90
16040;DHT22;8124;48.634;8.120;2023-11-19T11:01:34;15.90;99.90
16040;DHT22;8124;48.634;8.120;2023-11-19T11:06:39;15.90;99.90
16040;DHT22;8124;48.634;8.120;2023-11-19T11:11:47;16.20;99.90
16040;DHT22;8124;48.634;8.120;2023-11-19T11:16:51;16.20;99.90
16040;DHT22;8124;48.634;8.120;2023-11-19T11:21:58;16.20;99.90
16040;DHT22;8124;48.634;8.120;2023-11-19T11:27:30;16.00;99.90
16040;DHT22;8124;48.634;8.120;2023-11-19T11:32:40;16.10;99.90
16040;DHT22;8124;48.634;8.120;2023-11-19T11:37:50;16.10;99.90
16040;DHT22;8124;48.634;8.120;2023-11-19T11:42:56;16.20;99.90
16040;DHT22;8124;48.634;8.120;2023-11-19T11:48:15;16.30;99.90
16040;DHT22;8124;48.634;8.120;2023-11-19T11:53:24;16.30;99.90
16040;DHT22;8124;48.634;8.120;2023-11-19T11:58:40;16.30;99.90
16040;DHT22;8124;48.634;8.120;2023-11-19T12:03:55;16.30;99.90
16040;DHT22;8124;48.634;8.120;2023-11-19T12:09:01;16.30;99.90
16040;DHT22;8124;48.634;8.120;2023-11-19T12:14:05;16.20;99.90
16040;DHT22;8124;48.634;8.120;2023-11-19T12:19:08;16.30;99.90
16040;DHT22;8124;48.634;8.120;2023-11-19T12:24:13;16.30;99.90
16040;DHT22;8124;48.634;8.120;2023-11-19T12:29:16;16.40;99.90
16040;DHT22;8124;48.634;8.120;2023-11-19T12:34:20;16.40;99.90
16040;DHT22;8124;48.634;8.120;2023-11-19T12:39:31;16.40;99.90
16040;DHT22;8124;48.634;8.120;2023-11-19T12:44:34;16.50;99.90
16040;DHT22;8124;48.634;8.120;2023-11-19T12:49:37;16.50;99.90
16040;DHT22;8124;48.634;8.120;2023-11-19T12:54:41;16.50;99.90
16040;DHT22;8124;48.634;8.120;2023-11-19T12:59:54;16.70;99.90
16040;DHT22;8124;48.634;8.120;2023-11-19T13:04:57;16.70;99.90
16040;DHT22;8124;48.634;8.120;2023-11-19T13:10:03;16.70;99.90
16040;DHT22;8124;48.634;8.120;2023-11-19T13:15:07;16.80;99.90
16040;DHT22;8124;48.634;8.120;2023-11-19T13:20:25;16.90;99.90
16040;DHT22;8124;48.634;8.120;2023-11-19T13:25:30;17.00;99.90
16040;DHT22;8124;48.634;8.120;2023-11-19T13:30:33;17.00;99.90
16040;DHT22;8124;48.634;8.120;2023-11-19T13:35:37;17.10;99.90
16040;DHT22;8124;48.634;8.120;2023-11-19T13:40:43;17.20;99.90
16040;DHT22;8124;48.634;8.120;2023-11-19T13:45:46;17.20;99.90
16040;DHT22;8124;48.634;8.120;2023-11-19T13:50:49;17.10;99.90
16040;DHT22;8124;48.634;8.120;2023-11-19T13:55:54;17.10;99.90
16040;DHT22;8124;48.634;8.120;2023-11-19T14:00:57;17.00;99.90
16040;DHT22;8124;48.634;8.120;2023-11-19T14:06:00;16.80;99.90
16040;DHT22;8124;48.634;8.120;2023-11-19T14:11:06;16.80;99.90
16040;DHT22;8124;48.634;8.120;2023-11-19T14:16:09;16.80;99.90
16040;DHT22;8124;48.634;8.120;2023-11-19T14:21:16;16.90;99.90
16040;DHT22;8124;48.634;8.120;2023-11-19T14:26:21;16.80;99.90
16040;DHT22;8124;48.634;8.120;2023-11-19T14:31:27;16.70;99.90
16040;DHT22;8124;48.634;8.120;2023-11-19T14:36:30;16.70;99.90
16040;DHT22;8124;48.634;8.120;2023-11-19T14:41:35;16.70;99.90
16040;DHT22;8124;48.634;8.120;2023-11-19T14:46:38;16.60;99.90
16040;DHT22;8124;48.634;8.120;2023-11-19T14:51:41;16.50;99.90
16040;DHT22;8124;48.634;8.120;2023-11-19T14:56:46;16.40;99.90
16040;DHT22;8124;48.634;8.120;2023-11-19T15:01:49;16.30;99.90
16040;DHT22;8124;48.634;8.120;2023-11-19T15:06:52;16.30;99.90
16040;DHT22;8124;48.634;8.120;2023-11-19T15:11:59;16.20;99.90
16040;DHT22;8124;48.634;8.120;2023-11-19T15:17:04;16.20;99.90
16040;DHT22;8124;48.634;8.120;2023-11-19T15:22:08;16.10;99.90
16040;DHT22;8124;48.634;8.120;2023-11-19T15:27:14;16.10;99.90
16040;DHT22;8124;48.634;8.120;2023-11-19T15:32:17;16.00;99.90
16040;DHT22;8124;48.634;8.120;2023-11-19T15:37:20;16.00;99.90
16040;DHT22;8124;48.634;8.120;2023-11-19T15:42:25;15.90;99.90
16040;DHT22;8124;48.634;8.120;2023-11-19T15:47:28;15.80;99.90
16040;DHT22;8124;48.634;8.120;2023-11-19T15:52:31;15.70;99.90
16040;DHT22;8124;48.634;8.120;2023-11-19T15:57:35;15.70;99.90
16040;DHT22;8124;48.634;8.120;2023-11-19T16:02:39;15.70;99.90
16040;DHT22;8124;48.634;8.120;2023-11-19T16:07:42;15.70;99.90
16040;DHT22;8124;48.634;8.120;2023-11-19T16:12:46;15.70;99.90
16040;DHT22;8124;48.634;8.120;2023-11-19T16:17:50;15.70;99.90
16040;DHT22;8124;48.634;8.120;2023-11-19T16:22:53;15.70;99.90
16040;DHT22;8124;48.634;8.120;2023-11-19T16:27:57;15.60;99.90
16040;DHT22;8124;48.634;8.120;2023-11-19T16:33:01;15.60;99.90
16040;DHT22;8124;48.634;8.120;2023-11-19T16:38:05;15.60;99.90
16040;DHT22;8124;48.634;8.120;2023-11-19T16:43:10;15.60;99.90
16040;DHT22;8124;48.634;8.120;2023-11-19T16:48:14;15.60;99.90
16040;DHT22;8124;48.634;8.120;2023-11-19T16:53:17;15.70;99.90
16040;DHT22;8124;48.634;8.120;2023-11-19T16:58:22;15.70;99.90
16040;DHT22;8124;48.634;8.120;2023-11-19T17:03:25;15.60;99.90
16040;DHT22;8124;48.634;8.120;2023-11-19T17:08:28;15.80;99.90
16040;DHT22;8124;48.634;8.120;2023-11-19T17:13:35;15.80;99.90
16040;DHT22;8124;48.634;8.120;2023-11-19T17:18:38;15.70;99.90
16040;DHT22;8124;48.634;8.120;2023-11-19T17:23:49;15.80;99.90
16040;DHT22;8124;48.634;8.120;2023-11-19T17:28:53;15.80;99.90
16040;DHT22;8124;48.634;8.120;2023-11-19T17:33:58;15.80;99.90
16040;DHT22;8124;48.634;8.120;2023-11-19T17:39:02;15.70;99.90
16040;DHT22;8124;48.634;8.120;2023-11-19T17:44:07;15.70;99.90
16040;DHT22;8124;48.634;8.120;2023-11-19T17:49:13;15.70;99.90
16040;DHT22;8124;48.634;8.120;2023-11-19T17:54:16;15.70;99.90
16040;DHT22;8124;48.634;8.120;2023-11-19T17:59:21;15.50;99.90
16040;DHT22;8124;48.634;8.120;2023-11-19T18:04:29;15.60;99.90
16040;DHT22;8124;48.634;8.120;2023-11-19T18:09:33;15.50;99.90
16040;DHT22;8124;48.634;8.120;2023-11-19T18:14:38;15.60;99.90
16040;DHT22;8124;48.634;8.120;2023-11-19T18:19:44;15.60;99.90
16040;DHT22;8124;48.634;8.120;2023-11-19T18:24:47;15.60;99.90
16040;DHT22;8124;48.634;8.120;2023-11-19T18:29:52;15.50;99.90
16040;DHT22;8124;48.634;8.120;2023-11-19T18:34:55;15.50;99.90
16040;DHT22;8124;48.634;8.120;2023-11-19T18:39:58;15.50;99.90
16040;DHT22;8124;48.634;8.120;2023-11-19T18:45:08;15.50;99.90
16040;DHT22;8124;48.634;8.120;2023-11-19T18:50:14;15.50;99.90
16040;DHT22;8124;48.634;8.120;2023-11-19T18:55:20;15.50;99.90
16040;DHT22;8124;48.634;8.120;2023-11-19T19:00:25;15.50;99.90
16040;DHT22;8124;48.634;8.120;2023-11-19T19:05:28;15.50;99.90
16040;DHT22;8124;48.634;8.120;2023-11-19T19:10:33;15.60;99.90
16040;DHT22;8124;48.634;8.120;2023-11-19T19:15:42;15.60;99.90
16040;DHT22;8124;48.634;8.120;2023-11-19T19:20:45;15.60;99.90
16040;DHT22;8124;48.634;8.120;2023-11-19T19:25:49;15.60;99.90
16040;DHT22;8124;48.634;8.120;2023-11-19T19:30:55;15.60;99.90
16040;DHT22;8124;48.634;8.120;2023-11-19T19:35:59;15.50;99.90
16040;DHT22;8124;48.634;8.120;2023-11-19T19:41:04;15.40;99.90
16040;DHT22;8124;48.634;8.120;2023-11-19T19:46:09;15.40;99.90
16040;DHT22;8124;48.634;8.120;2023-11-19T19:51:13;15.40;99.90
16040;DHT22;8124;48.634;8.120;2023-11-19T19:56:16;15.30;99.90
16040;DHT22;8124;48.634;8.120;2023-11-19T20:01:20;15.40;99.90
16040;DHT22;8124;48.634;8.120;2023-11-19T20:06:25;15.60;99.90
16040;DHT22;8124;48.634;8.120;2023-11-19T20:11:32;15.50;99.90
16040;DHT22;8124;48.634;8.120;2023-11-19T20:16:38;15.60;99.90
16040;DHT22;8124;48.634;8.120;2023-11-19T20:21:42;15.60;99.90
16040;DHT22;8124;48.634;8.120;2023-11-19T20:26:46;15.30;99.90
16040;DHT22;8124;48.634;8.120;2023-11-19T20:31:56;15.50;99.90
16040;DHT22;8124;48.634;8.120;2023-11-19T20:37:01;15.50;99.90
16040;DHT22;8124;48.634;8.120;2023-11-19T20:42:05;15.60;99.90
16040;DHT22;8124;48.634;8.120;2023-11-19T20:47:10;15.40;99.90
16040;DHT22;8124;48.634;8.120;2023-11-19T20:52:14;15.10;99.90
16040;DHT22;8124;48.634;8.120;2023-11-19T20:57:18;15.10;99.90
16040;DHT22;8124;48.634;8.120;2023-11-19T21:02:22;15.10;99.90
16040;DHT22;8124;48.634;8.120;2023-11-19T21:07:25;15.10;99.90
16040;DHT22;8124;48.634;8.120;2023-11-19T21:12:29;15.10;99.90
16040;DHT22;8124;48.634;8.120;2023-11-19T21:17:33;14.90;99.90
16040;DHT22;8124;48.634;8.120;2023-11-19T21:22:36;14.80;99.90
16040;DHT22;8124;48.634;8.120;2023-11-19T21:27:39;14.80;99.90
16040;DHT22;8124;48.634;8.120;2023-11-19T21:32:44;14.80;99.90
16040;DHT22;8124;48.634;8.120;2023-11-19T21:37:47;14.80;99.90
16040;DHT22;8124;48.634;8.120;2023-11-19T21:42:50;14.70;99.90
16040;DHT22;8124;48.634;8.120;2023-11-19T21:47:55;14.80;99.90
16040;DHT22;8124;48.634;8.120;2023-11-19T21:52:58;14.70;99.90
16040;DHT22;8124;48.634;8.120;2023-11-19T21:58:01;14.60;99.90
16040;DHT22;8124;48.634;8.120;2023-11-19T22:03:07;14.60;99.90
16040;DHT22;8124;48.634;8.120;2023-11-19T22:08:10;14.70;99.90
16040;DHT22;8124;48.634;8.120;2023-11-19T22:13:19;14.60;99.90
16040;DHT22;8124;48.634;8.120;2023-11-19T22:18:23;14.60;99.90
16040;DHT22;8124;48.634;8.120;2023-11-19T22:23:27;14.70;99.90
16040;DHT22;8124;48.634;8.120;2023-11-19T22:28:30;14.70;99.90
16040;DHT22;8124;48.634;8.120;2023-11-19T22:33:36;14.80;99.90
16040;DHT22;8124;48.634;8.120;2023-11-19T22:38:40;14.60;99.90
16040;DHT22;8124;48.634;8.120;2023-11-19T22:43:43;14.70;99.90
16040;DHT22;8124;48.634;8.120;2023-11-19T22:48:48;14.70;99.90
16040;DHT22;8124;48.634;8.120;2023-11-19T22:53:54;14.60;99.90
16040;DHT22;8124;48.634;8.120;2023-11-19T22:58:58;14.50;99.90
16040;DHT22;8124;48.634;8.120;2023-11-19T23:04:02;14.50;99.90
16040;DHT22;8124;48.634;8.120;2023-11-19T23:09:05;14.40;99.90
16040;DHT22;8124;48.634;8.120;2023-11-19T23:14:09;14.60;99.90
16040;DHT22;8124;48.634;8.120;2023-11-19T23:19:16;14.50;99.90
16040;DHT22;8124;48.634;8.120;2023-11-19T23:24:19;14.70;99.90
16040;DHT22;8124;48.634;8.120;2023-11-19T23:29:22;14.50;99.90
16040;DHT22;8124;48.634;8.120;2023-11-19T23:34:28;14.50;99.90
16040;DHT22;8124;48.634;8.120;2023-11-19T23:39:34;14.50;99.90
16040;DHT22;8124;48.634;8.120;2023-11-19T23:44:37;14.40;99.90
16040;DHT22;8124;48.634;8.120;2023-11-19T23:49:41;14.40;99.90
16040;DHT22;8124;48.634;8.120;2023-11-19T23:54:44;14.30;99.90
16040;DHT22;8124;48.634;8.120;2023-11-19T23:59:47;14.30;99.90
